sensor_id;sensor_type;location;lat;lon;timestamp;temperature;humidity
20035;DHT22;10178;48.034;9.800;2022-09-09T00:01:33;19.10;99.90
20035;DHT22;10178;48.034;9.800;2022-09-09T00:07:05;19.00;99.90
20035;DHT22;10178;48.034;9.800;2022-09-09T00:09:57;19.00;99.90
20035;DHT22;10178;48.034;9.800;2022-09-09T00:15:38;19.00;99.90
20035;DHT22;10178;48.034;9.800;2022-09-09T00:21:13;18.90;99.90
20035;DHT22;10178;48.034;9.800;2022-09-09T00:23:49;18.90;99.90
20035;DHT22;10178;48.034;9.800;2022-09-09T00:26:33;18.90;99.90
20035;DHT22;10178;48.034;9.800;2022-09-09T00:31:34;18.30;99.90
20035;DHT22;10178;48.034;9.800;2022-09-09T00:34:14;18.50;99.90
20035;DHT22;10178;48.034;9.800;2022-09-09T00:36:41;18.50;99.90
20035;DHT22;10178;48.034;9.800;2022-09-09T00:39:21;18.60;99.90
20035;DHT22;10178;48.034;9.800;2022-09-09T00:42:06;17.80;99.90
20035;DHT22;10178;48.034;9.800;2022-09-09T00:44:38;18.20;99.90
20035;DHT22;10178;48.034;9.800;2022-09-09T00:47:30;18.40;99.90
20035;DHT22;10178;48.034;9.800;2022-09-09T00:50:10;18.50;99.90
20035;DHT22;10178;48.034;9.800;2022-09-09T00:56:25;18.60;99.90
20035;DHT22;10178;48.034;9.800;2022-09-09T00:58:17;18.60;99.90
20035;DHT22;10178;48.034;9.800;2022-09-09T01:00:50;18.60;99.90
20035;DHT22;10178;48.034;9.800;2022-09-09T01:09:27;18.30;99.90
20035;DHT22;10178;48.034;9.800;2022-09-09T01:12:03;17.50;99.90
20035;DHT22;10178;48.034;9.800;2022-09-09T01:17:34;16.90;99.90
20035;DHT22;10178;48.034;9.800;2022-09-09T01:20:08;17.40;99.90
20035;DHT22;10178;48.034;9.800;2022-09-09T01:23:11;17.70;99.90
20035;DHT22;10178;48.034;9.800;2022-09-09T01:28:39;17.80;99.90
20035;DHT22;10178;48.034;9.800;2022-09-09T01:31:06;16.50;99.90
20035;DHT22;10178;48.034;9.800;2022-09-09T01:33:34;17.00;99.90
20035;DHT22;10178;48.034;9.800;2022-09-09T01:36:24;17.50;99.90
20035;DHT22;10178;48.034;9.800;2022-09-09T01:38:50;17.00;99.90
20035;DHT22;10178;48.034;9.800;2022-09-09T01:41:16;16.70;99.90
20035;DHT22;10178;48.034;9.800;2022-09-09T01:43:42;17.30;99.90
20035;DHT22;10178;48.034;9.800;2022-09-09T01:46:07;17.60;99.90
20035;DHT22;10178;48.034;9.800;2022-09-09T01:48:33;16.50;99.90
20035;DHT22;10178;48.034;9.800;2022-09-09T01:50:59;17.00;99.90
20035;DHT22;10178;48.034;9.800;2022-09-09T01:53:24;17.40;99.90
20035;DHT22;10178;48.034;9.800;2022-09-09T01:56:05;17.60;99.90
20035;DHT22;10178;48.034;9.800;2022-09-09T02:01:55;18.00;99.90
20035;DHT22;10178;48.034;9.800;2022-09-09T02:04:27;18.00;99.90
20035;DHT22;10178;48.034;9.800;2022-09-09T02:06:56;18.00;99.90
20035;DHT22;10178;48.034;9.800;2022-09-09T02:09:26;17.50;99.90
20035;DHT22;10178;48.034;9.800;2022-09-09T02:12:11;16.80;99.90
20035;DHT22;10178;48.034;9.800;2022-09-09T02:14:48;17.20;99.90
20035;DHT22;10178;48.034;9.800;2022-09-09T02:17:21;16.80;99.90
20035;DHT22;10178;48.034;9.800;2022-09-09T02:19:55;16.90;99.90
20035;DHT22;10178;48.034;9.800;2022-09-09T02:22:24;17.30;99.90
20035;DHT22;10178;48.034;9.800;2022-09-09T02:24:55;17.60;99.90
20035;DHT22;10178;48.034;9.800;2022-09-09T02:27:22;17.70;99.90
20035;DHT22;10178;48.034;9.800;2022-09-09T02:29:49;17.60;99.90
20035;DHT22;10178;48.034;9.800;2022-09-09T02:32:22;16.50;99.90
20035;DHT22;10178;48.034;9.800;2022-09-09T02:34:53;16.70;99.90
20035;DHT22;10178;48.034;9.800;2022-09-09T02:37:24;17.10;99.90
20035;DHT22;10178;48.034;9.800;2022-09-09T02:39:54;17.30;99.90
20035;DHT22;10178;48.034;9.800;2022-09-09T02:42:20;17.50;99.90
20035;DHT22;10178;48.034;9.800;2022-09-09T02:44:45;17.60;99.90
20035;DHT22;10178;48.034;9.800;2022-09-09T02:47:34;17.70;99.90
20035;DHT22;10178;48.034;9.800;2022-09-09T02:50:22;17.70;99.90
20035;DHT22;10178;48.034;9.800;2022-09-09T02:52:59;17.80;99.90
20035;DHT22;10178;48.034;9.800;2022-09-09T02:55:39;17.80;99.90
20035;DHT22;10178;48.034;9.800;2022-09-09T02:58:10;16.70;99.90
20035;DHT22;10178;48.034;9.800;2022-09-09T03:00:38;16.40;99.90
20035;DHT22;10178;48.034;9.800;2022-09-09T03:03:08;16.50;99.90
20035;DHT22;10178;48.034;9.800;2022-09-09T03:05:35;16.90;99.90
20035;DHT22;10178;48.034;9.800;2022-09-09T03:08:01;16.80;99.90
20035;DHT22;10178;48.034;9.800;2022-09-09T03:10:27;17.20;99.90
20035;DHT22;10178;48.034;9.800;2022-09-09T03:12:53;17.40;99.90
20035;DHT22;10178;48.034;9.800;2022-09-09T03:15:20;17.50;99.90
20035;DHT22;10178;48.034;9.800;2022-09-09T03:17:46;17.60;99.90
20035;DHT22;10178;48.034;9.800;2022-09-09T03:20:12;17.60;99.90
20035;DHT22;10178;48.034;9.800;2022-09-09T03:22:38;16.60;99.90
20035;DHT22;10178;48.034;9.800;2022-09-09T03:25:03;16.90;99.90
20035;DHT22;10178;48.034;9.800;2022-09-09T03:27:29;17.20;99.90
20035;DHT22;10178;48.034;9.800;2022-09-09T03:29:55;17.40;99.90
20035;DHT22;10178;48.034;9.800;2022-09-09T03:32:21;17.50;99.90
20035;DHT22;10178;48.034;9.800;2022-09-09T03:34:48;16.90;99.90
20035;DHT22;10178;48.034;9.800;2022-09-09T03:37:15;17.00;99.90
20035;DHT22;10178;48.034;9.800;2022-09-09T03:39:41;17.20;99.90
20035;DHT22;10178;48.034;9.800;2022-09-09T03:42:07;16.60;99.90
20035;DHT22;10178;48.034;9.800;2022-09-09T03:44:32;14.90;99.90
20035;DHT22;10178;48.034;9.800;2022-09-09T03:46:58;13.90;99.90
20035;DHT22;10178;48.034;9.800;2022-09-09T03:49:26;13.40;99.90
20035;DHT22;10178;48.034;9.800;2022-09-09T03:51:54;13.00;99.90
20035;DHT22;10178;48.034;9.800;2022-09-09T03:54:22;12.80;99.90
20035;DHT22;10178;48.034;9.800;2022-09-09T03:56:48;12.80;99.90
20035;DHT22;10178;48.034;9.800;2022-09-09T03:59:13;12.90;99.90
20035;DHT22;10178;48.034;9.800;2022-09-09T04:01:39;13.20;99.90
20035;DHT22;10178;48.034;9.800;2022-09-09T04:04:05;13.50;99.90
20035;DHT22;10178;48.034;9.800;2022-09-09T04:06:30;13.40;99.90
20035;DHT22;10178;48.034;9.800;2022-09-09T04:08:56;13.70;99.90
20035;DHT22;10178;48.034;9.800;2022-09-09T04:11:22;14.40;99.90
20035;DHT22;10178;48.034;9.800;2022-09-09T04:13:48;15.00;99.90
20035;DHT22;10178;48.034;9.800;2022-09-09T04:16:14;15.60;99.90
20035;DHT22;10178;48.034;9.800;2022-09-09T04:18:40;16.00;99.90
20035;DHT22;10178;48.034;9.800;2022-09-09T04:21:06;16.40;99.90
20035;DHT22;10178;48.034;9.800;2022-09-09T04:23:33;16.10;99.90
20035;DHT22;10178;48.034;9.800;2022-09-09T04:26:00;16.30;99.90
20035;DHT22;10178;48.034;9.800;2022-09-09T04:28:29;16.70;99.90
20035;DHT22;10178;48.034;9.800;2022-09-09T04:30:56;16.90;99.90
20035;DHT22;10178;48.034;9.800;2022-09-09T04:33:23;16.90;99.90
20035;DHT22;10178;48.034;9.800;2022-09-09T04:35:51;17.10;99.90
20035;DHT22;10178;48.034;9.800;2022-09-09T04:38:19;17.30;99.90
20035;DHT22;10178;48.034;9.800;2022-09-09T04:40:49;17.40;99.90
20035;DHT22;10178;48.034;9.800;2022-09-09T04:43:15;17.50;99.90
20035;DHT22;10178;48.034;9.800;2022-09-09T04:45:41;17.50;99.90
20035;DHT22;10178;48.034;9.800;2022-09-09T04:48:08;17.60;99.90
20035;DHT22;10178;48.034;9.800;2022-09-09T04:50:35;17.60;99.90
20035;DHT22;10178;48.034;9.800;2022-09-09T04:53:04;17.60;99.90
20035;DHT22;10178;48.034;9.800;2022-09-09T04:55:33;17.60;99.90
20035;DHT22;10178;48.034;9.800;2022-09-09T04:58:07;17.60;99.90
20035;DHT22;10178;48.034;9.800;2022-09-09T05:00:34;17.60;99.90
20035;DHT22;10178;48.034;9.800;2022-09-09T05:03:10;17.60;99.90
20035;DHT22;10178;48.034;9.800;2022-09-09T05:05:36;17.60;99.90
20035;DHT22;10178;48.034;9.800;2022-09-09T05:08:03;17.70;99.90
20035;DHT22;10178;48.034;9.800;2022-09-09T05:10:29;17.70;99.90
20035;DHT22;10178;48.034;9.800;2022-09-09T05:12:55;17.70;99.90
20035;DHT22;10178;48.034;9.800;2022-09-09T05:15:21;17.70;99.90
20035;DHT22;10178;48.034;9.800;2022-09-09T05:17:47;17.70;99.90
20035;DHT22;10178;48.034;9.800;2022-09-09T05:20:12;17.60;99.90
20035;DHT22;10178;48.034;9.800;2022-09-09T05:22:38;17.60;99.90
20035;DHT22;10178;48.034;9.800;2022-09-09T05:25:04;17.70;99.90
20035;DHT22;10178;48.034;9.800;2022-09-09T05:27:30;17.70;99.90
20035;DHT22;10178;48.034;9.800;2022-09-09T05:29:58;17.70;99.90
20035;DHT22;10178;48.034;9.800;2022-09-09T05:32:23;17.70;99.90
20035;DHT22;10178;48.034;9.800;2022-09-09T05:34:49;17.70;99.90
20035;DHT22;10178;48.034;9.800;2022-09-09T05:37:15;17.70;99.90
20035;DHT22;10178;48.034;9.800;2022-09-09T05:39:41;17.70;99.90
20035;DHT22;10178;48.034;9.800;2022-09-09T05:42:07;17.70;99.90
20035;DHT22;10178;48.034;9.800;2022-09-09T05:44:33;17.60;99.90
20035;DHT22;10178;48.034;9.800;2022-09-09T05:46:58;17.60;99.90
20035;DHT22;10178;48.034;9.800;2022-09-09T05:49:24;17.70;99.90
20035;DHT22;10178;48.034;9.800;2022-09-09T05:51:50;17.70;99.90
20035;DHT22;10178;48.034;9.800;2022-09-09T05:54:16;17.70;99.90
20035;DHT22;10178;48.034;9.800;2022-09-09T05:56:42;17.80;99.90
20035;DHT22;10178;48.034;9.800;2022-09-09T05:59:08;17.80;99.90
20035;DHT22;10178;48.034;9.800;2022-09-09T06:01:35;17.80;99.90
20035;DHT22;10178;48.034;9.800;2022-09-09T06:04:02;17.80;99.90
20035;DHT22;10178;48.034;9.800;2022-09-09T06:06:31;17.80;99.90
20035;DHT22;10178;48.034;9.800;2022-09-09T06:08:57;17.80;99.90
20035;DHT22;10178;48.034;9.800;2022-09-09T06:11:28;17.80;99.90
20035;DHT22;10178;48.034;9.800;2022-09-09T06:13:56;17.40;99.90
20035;DHT22;10178;48.034;9.800;2022-09-09T06:16:23;17.50;99.90
20035;DHT22;10178;48.034;9.800;2022-09-09T06:18:50;17.40;99.90
20035;DHT22;10178;48.034;9.800;2022-09-09T06:21:19;17.50;99.90
20035;DHT22;10178;48.034;9.800;2022-09-09T06:23:45;17.30;99.90
20035;DHT22;10178;48.034;9.800;2022-09-09T06:26:20;17.30;99.90
20035;DHT22;10178;48.034;9.800;2022-09-09T06:28:47;16.90;99.90
20035;DHT22;10178;48.034;9.800;2022-09-09T06:31:15;16.70;99.90
20035;DHT22;10178;48.034;9.800;2022-09-09T06:33:49;16.80;99.90
20035;DHT22;10178;48.034;9.800;2022-09-09T06:36:20;16.50;99.90
20035;DHT22;10178;48.034;9.800;2022-09-09T06:38:46;16.80;99.90
20035;DHT22;10178;48.034;9.800;2022-09-09T06:41:14;17.10;99.90
20035;DHT22;10178;48.034;9.800;2022-09-09T06:43:40;17.30;99.90
20035;DHT22;10178;48.034;9.800;2022-09-09T06:46:13;17.40;99.90
20035;DHT22;10178;48.034;9.800;2022-09-09T06:48:40;17.40;99.90
20035;DHT22;10178;48.034;9.800;2022-09-09T06:51:28;17.60;99.90
20035;DHT22;10178;48.034;9.800;2022-09-09T06:53:56;17.80;99.90
20035;DHT22;10178;48.034;9.800;2022-09-09T06:56:26;17.90;99.90
20035;DHT22;10178;48.034;9.800;2022-09-09T06:58:55;17.70;99.90
20035;DHT22;10178;48.034;9.800;2022-09-09T07:01:26;17.70;99.90
20035;DHT22;10178;48.034;9.800;2022-09-09T07:03:54;17.70;99.90
20035;DHT22;10178;48.034;9.800;2022-09-09T07:06:27;17.50;99.90
20035;DHT22;10178;48.034;9.800;2022-09-09T07:08:55;17.20;99.90
20035;DHT22;10178;48.034;9.800;2022-09-09T07:11:25;17.00;99.90
20035;DHT22;10178;48.034;9.800;2022-09-09T07:13:52;17.00;99.90
20035;DHT22;10178;48.034;9.800;2022-09-09T07:16:19;17.10;99.90
20035;DHT22;10178;48.034;9.800;2022-09-09T07:18:46;17.30;99.90
20035;DHT22;10178;48.034;9.800;2022-09-09T07:21:13;17.50;99.90
20035;DHT22;10178;48.034;9.800;2022-09-09T07:23:40;17.10;99.90
20035;DHT22;10178;48.034;9.800;2022-09-09T07:26:14;17.10;99.90
20035;DHT22;10178;48.034;9.800;2022-09-09T07:28:41;17.00;99.90
20035;DHT22;10178;48.034;9.800;2022-09-09T07:31:14;16.90;99.90
20035;DHT22;10178;48.034;9.800;2022-09-09T07:33:40;17.00;99.90
20035;DHT22;10178;48.034;9.800;2022-09-09T07:36:09;17.20;99.90
20035;DHT22;10178;48.034;9.800;2022-09-09T07:38:47;17.20;99.90
20035;DHT22;10178;48.034;9.800;2022-09-09T07:41:15;17.50;99.90
20035;DHT22;10178;48.034;9.800;2022-09-09T07:43:44;17.70;99.90
20035;DHT22;10178;48.034;9.800;2022-09-09T07:46:12;17.60;99.90
20035;DHT22;10178;48.034;9.800;2022-09-09T07:48:44;17.50;99.90
20035;DHT22;10178;48.034;9.800;2022-09-09T07:51:15;17.30;99.90
20035;DHT22;10178;48.034;9.800;2022-09-09T07:53:45;17.50;99.90
20035;DHT22;10178;48.034;9.800;2022-09-09T07:56:14;17.60;99.90
20035;DHT22;10178;48.034;9.800;2022-09-09T07:58:41;17.60;99.90
20035;DHT22;10178;48.034;9.800;2022-09-09T08:01:12;17.80;99.90
20035;DHT22;10178;48.034;9.800;2022-09-09T08:03:39;18.10;99.90
20035;DHT22;10178;48.034;9.800;2022-09-09T08:06:07;18.30;99.90
20035;DHT22;10178;48.034;9.800;2022-09-09T08:08:34;18.30;99.90
20035;DHT22;10178;48.034;9.800;2022-09-09T08:11:13;18.20;99.90
20035;DHT22;10178;48.034;9.800;2022-09-09T08:13:40;18.30;99.90
20035;DHT22;10178;48.034;9.800;2022-09-09T08:18:34;18.40;99.90
20035;DHT22;10178;48.034;9.800;2022-09-09T08:21:27;18.40;99.90
20035;DHT22;10178;48.034;9.800;2022-09-09T08:23:54;18.60;99.90
20035;DHT22;10178;48.034;9.800;2022-09-09T08:28:53;18.50;99.90
20035;DHT22;10178;48.034;9.800;2022-09-09T08:31:21;18.60;99.90
20035;DHT22;10178;48.034;9.800;2022-09-09T08:33:47;18.70;99.90
20035;DHT22;10178;48.034;9.800;2022-09-09T08:36:15;18.70;99.90
20035;DHT22;10178;48.034;9.800;2022-09-09T08:38:42;18.60;99.90
20035;DHT22;10178;48.034;9.800;2022-09-09T08:47:34;18.80;99.90
20035;DHT22;10178;48.034;9.800;2022-09-09T08:50:15;18.90;99.90
20035;DHT22;10178;48.034;9.800;2022-09-09T08:53:11;18.90;99.90
20035;DHT22;10178;48.034;9.800;2022-09-09T08:58:21;18.60;99.90
20035;DHT22;10178;48.034;9.800;2022-09-09T09:09:20;18.80;99.90
20035;DHT22;10178;48.034;9.800;2022-09-09T09:12:00;18.90;99.90
20035;DHT22;10178;48.034;9.800;2022-09-09T09:14:33;18.90;99.90
20035;DHT22;10178;48.034;9.800;2022-09-09T09:17:15;19.00;99.90
20035;DHT22;10178;48.034;9.800;2022-09-09T09:19:43;19.10;99.90
20035;DHT22;10178;48.034;9.800;2022-09-09T09:22:22;18.90;99.90
20035;DHT22;10178;48.034;9.800;2022-09-09T09:25:40;19.00;99.90
20035;DHT22;10178;48.034;9.800;2022-09-09T09:28:02;19.00;99.90
20035;DHT22;10178;48.034;9.800;2022-09-09T09:30:39;19.00;99.90
20035;DHT22;10178;48.034;9.800;2022-09-09T09:35:50;18.80;99.90
20035;DHT22;10178;48.034;9.800;2022-09-09T09:38:22;18.90;99.90
20035;DHT22;10178;48.034;9.800;2022-09-09T09:40:50;18.70;99.90
20035;DHT22;10178;48.034;9.800;2022-09-09T09:43:26;18.80;99.90
20035;DHT22;10178;48.034;9.800;2022-09-09T09:45:55;18.90;99.90
20035;DHT22;10178;48.034;9.800;2022-09-09T09:48:24;19.00;99.90
20035;DHT22;10178;48.034;9.800;2022-09-09T09:51:00;19.10;99.90
20035;DHT22;10178;48.034;9.800;2022-09-09T09:53:33;19.10;99.90
20035;DHT22;10178;48.034;9.800;2022-09-09T09:56:13;19.30;99.90
20035;DHT22;10178;48.034;9.800;2022-09-09T10:01:23;19.30;99.90
20035;DHT22;10178;48.034;9.800;2022-09-09T10:04:16;19.10;99.90
20035;DHT22;10178;48.034;9.800;2022-09-09T10:06:43;19.30;99.90
20035;DHT22;10178;48.034;9.800;2022-09-09T10:09:30;19.30;99.90
20035;DHT22;10178;48.034;9.800;2022-09-09T10:21:13;19.80;99.90
20035;DHT22;10178;48.034;9.800;2022-09-09T10:23:56;19.90;99.90
20035;DHT22;10178;48.034;9.800;2022-09-09T10:29:44;20.20;99.90
20035;DHT22;10178;48.034;9.800;2022-09-09T10:32:46;20.30;99.90
20035;DHT22;10178;48.034;9.800;2022-09-09T10:42:54;21.00;99.90
20035;DHT22;10178;48.034;9.800;2022-09-09T10:45:32;20.60;99.90
20035;DHT22;10178;48.034;9.800;2022-09-09T10:48:29;20.10;99.90
20035;DHT22;10178;48.034;9.800;2022-09-09T10:53:40;20.50;99.90
20035;DHT22;10178;48.034;9.800;2022-09-09T10:56:13;20.50;99.90
20035;DHT22;10178;48.034;9.800;2022-09-09T10:58:59;20.80;99.90
20035;DHT22;10178;48.034;9.800;2022-09-09T11:01:32;20.60;99.90
20035;DHT22;10178;48.034;9.800;2022-09-09T11:06:50;20.10;99.90
20035;DHT22;10178;48.034;9.800;2022-09-09T11:09:24;20.00;99.90
20035;DHT22;10178;48.034;9.800;2022-09-09T11:11:58;20.20;99.90
20035;DHT22;10178;48.034;9.800;2022-09-09T11:14:42;20.60;99.90
20035;DHT22;10178;48.034;9.800;2022-09-09T11:17:14;20.80;99.90
20035;DHT22;10178;48.034;9.800;2022-09-09T11:19:43;21.20;99.90
20035;DHT22;10178;48.034;9.800;2022-09-09T11:22:17;20.80;99.90
20035;DHT22;10178;48.034;9.800;2022-09-09T11:24:47;20.10;99.90
20035;DHT22;10178;48.034;9.800;2022-09-09T11:27:20;20.50;99.90
20035;DHT22;10178;48.034;9.800;2022-09-09T11:30:12;20.90;99.90
20035;DHT22;10178;48.034;9.800;2022-09-09T11:38:45;21.40;99.90
20035;DHT22;10178;48.034;9.800;2022-09-09T11:41:13;21.50;99.90
20035;DHT22;10178;48.034;9.800;2022-09-09T11:43:45;21.50;99.90
20035;DHT22;10178;48.034;9.800;2022-09-09T11:46:16;21.30;99.90
20035;DHT22;10178;48.034;9.800;2022-09-09T11:48:58;20.90;99.90
20035;DHT22;10178;48.034;9.800;2022-09-09T11:51:27;20.40;99.90
20035;DHT22;10178;48.034;9.800;2022-09-09T11:54:01;20.80;99.90
20035;DHT22;10178;48.034;9.800;2022-09-09T11:56:29;21.10;99.90
20035;DHT22;10178;48.034;9.800;2022-09-09T11:59:06;21.40;99.90
20035;DHT22;10178;48.034;9.800;2022-09-09T12:01:45;21.50;99.90
20035;DHT22;10178;48.034;9.800;2022-09-09T12:06:46;20.50;99.90
20035;DHT22;10178;48.034;9.800;2022-09-09T12:12:06;20.50;99.90
20035;DHT22;10178;48.034;9.800;2022-09-09T12:17:26;20.70;99.90
20035;DHT22;10178;48.034;9.800;2022-09-09T12:23:15;21.00;99.90
20035;DHT22;10178;48.034;9.800;2022-09-09T12:33:12;20.60;99.90
20035;DHT22;10178;48.034;9.800;2022-09-09T12:35:39;20.30;99.90
20035;DHT22;10178;48.034;9.800;2022-09-09T12:38:13;20.30;99.90
20035;DHT22;10178;48.034;9.800;2022-09-09T12:40:39;20.50;99.90
20035;DHT22;10178;48.034;9.800;2022-09-09T12:43:22;20.50;99.90
20035;DHT22;10178;48.034;9.800;2022-09-09T12:45:52;20.90;99.90
20035;DHT22;10178;48.034;9.800;2022-09-09T12:48:31;21.00;99.90
20035;DHT22;10178;48.034;9.800;2022-09-09T12:50:57;21.20;99.90
20035;DHT22;10178;48.034;9.800;2022-09-09T12:53:30;21.40;99.90
20035;DHT22;10178;48.034;9.800;2022-09-09T12:55:59;21.50;99.90
20035;DHT22;10178;48.034;9.800;2022-09-09T12:58:26;21.40;99.90
20035;DHT22;10178;48.034;9.800;2022-09-09T13:00:55;21.40;99.90
20035;DHT22;10178;48.034;9.800;2022-09-09T13:03:25;21.40;99.90
20035;DHT22;10178;48.034;9.800;2022-09-09T13:05:53;21.20;99.90
20035;DHT22;10178;48.034;9.800;2022-09-09T13:08:19;21.00;99.90
20035;DHT22;10178;48.034;9.800;2022-09-09T13:13:55;20.80;99.90
20035;DHT22;10178;48.034;9.800;2022-09-09T13:16:34;20.90;99.90
20035;DHT22;10178;48.034;9.800;2022-09-09T13:19:14;20.80;99.90
20035;DHT22;10178;48.034;9.800;2022-09-09T13:21:41;20.70;99.90
20035;DHT22;10178;48.034;9.800;2022-09-09T13:24:28;20.80;99.90
20035;DHT22;10178;48.034;9.800;2022-09-09T13:27:05;20.80;99.90
20035;DHT22;10178;48.034;9.800;2022-09-09T13:29:51;20.90;99.90
20035;DHT22;10178;48.034;9.800;2022-09-09T13:32:22;20.90;99.90
20035;DHT22;10178;48.034;9.800;2022-09-09T13:35:22;20.90;99.90
20035;DHT22;10178;48.034;9.800;2022-09-09T13:37:48;21.00;99.90
20035;DHT22;10178;48.034;9.800;2022-09-09T13:40:18;20.80;99.90
20035;DHT22;10178;48.034;9.800;2022-09-09T13:42:45;20.90;99.90
20035;DHT22;10178;48.034;9.800;2022-09-09T13:45:22;21.00;99.90
20035;DHT22;10178;48.034;9.800;2022-09-09T13:47:50;21.10;99.90
20035;DHT22;10178;48.034;9.800;2022-09-09T13:52:53;21.20;99.90
20035;DHT22;10178;48.034;9.800;2022-09-09T13:55:23;21.00;99.90
20035;DHT22;10178;48.034;9.800;2022-09-09T13:57:51;21.00;99.90
20035;DHT22;10178;48.034;9.800;2022-09-09T14:00:17;21.00;99.90
20035;DHT22;10178;48.034;9.800;2022-09-09T14:02:43;21.00;99.90
20035;DHT22;10178;48.034;9.800;2022-09-09T14:05:09;21.10;99.90
20035;DHT22;10178;48.034;9.800;2022-09-09T14:07:38;21.00;99.90
20035;DHT22;10178;48.034;9.800;2022-09-09T14:10:05;21.10;99.90
20035;DHT22;10178;48.034;9.800;2022-09-09T14:12:30;21.00;99.90
20035;DHT22;10178;48.034;9.800;2022-09-09T14:14:56;21.10;99.90
20035;DHT22;10178;48.034;9.800;2022-09-09T14:17:22;21.10;99.90
20035;DHT22;10178;48.034;9.800;2022-09-09T14:19:48;21.20;99.90
20035;DHT22;10178;48.034;9.800;2022-09-09T14:25:29;21.10;99.90
20035;DHT22;10178;48.034;9.800;2022-09-09T14:27:54;20.90;99.90
20035;DHT22;10178;48.034;9.800;2022-09-09T14:30:24;20.70;99.90
20035;DHT22;10178;48.034;9.800;2022-09-09T14:32:53;20.80;99.90
20035;DHT22;10178;48.034;9.800;2022-09-09T14:35:31;20.70;99.90
20035;DHT22;10178;48.034;9.800;2022-09-09T14:38:18;20.60;99.90
20035;DHT22;10178;48.034;9.800;2022-09-09T14:40:59;20.70;99.90
20035;DHT22;10178;48.034;9.800;2022-09-09T14:43:49;20.90;99.90
20035;DHT22;10178;48.034;9.800;2022-09-09T14:46:48;21.00;99.90
20035;DHT22;10178;48.034;9.800;2022-09-09T14:55:41;20.80;99.90
20035;DHT22;10178;48.034;9.800;2022-09-09T14:58:07;20.60;99.90
20035;DHT22;10178;48.034;9.800;2022-09-09T15:00:45;20.60;99.90
20035;DHT22;10178;48.034;9.800;2022-09-09T15:03:14;20.60;99.90
20035;DHT22;10178;48.034;9.800;2022-09-09T15:06:33;20.70;99.90
20035;DHT22;10178;48.034;9.800;2022-09-09T15:09:00;20.70;99.90
20035;DHT22;10178;48.034;9.800;2022-09-09T15:11:28;20.60;99.90
20035;DHT22;10178;48.034;9.800;2022-09-09T15:13:55;20.70;99.90
20035;DHT22;10178;48.034;9.800;2022-09-09T15:16:47;20.80;99.90
20035;DHT22;10178;48.034;9.800;2022-09-09T15:19:24;20.70;99.90
20035;DHT22;10178;48.034;9.800;2022-09-09T15:21:49;20.70;99.90
20035;DHT22;10178;48.034;9.800;2022-09-09T15:24:15;20.70;99.90
20035;DHT22;10178;48.034;9.800;2022-09-09T15:33:01;20.90;99.90
20035;DHT22;10178;48.034;9.800;2022-09-09T15:38:46;21.20;99.90
20035;DHT22;10178;48.034;9.800;2022-09-09T15:41:13;21.20;99.90
20035;DHT22;10178;48.034;9.800;2022-09-09T15:43:38;21.30;99.90
20035;DHT22;10178;48.034;9.800;2022-09-09T15:49:26;21.50;99.90
20035;DHT22;10178;48.034;9.800;2022-09-09T15:51:57;21.60;99.90
20035;DHT22;10178;48.034;9.800;2022-09-09T15:54:25;21.60;99.90
20035;DHT22;10178;48.034;9.800;2022-09-09T15:57:00;21.60;99.90
20035;DHT22;10178;48.034;9.800;2022-09-09T15:59:28;21.70;99.90
20035;DHT22;10178;48.034;9.800;2022-09-09T16:05:59;21.50;99.90
20035;DHT22;10178;48.034;9.800;2022-09-09T16:08:32;21.50;99.90
20035;DHT22;10178;48.034;9.800;2022-09-09T16:11:13;21.50;99.90
20035;DHT22;10178;48.034;9.800;2022-09-09T16:14:32;21.30;99.90
20035;DHT22;10178;48.034;9.800;2022-09-09T16:17:22;21.00;99.90
20035;DHT22;10178;48.034;9.800;2022-09-09T16:24:51;20.80;99.90
20035;DHT22;10178;48.034;9.800;2022-09-09T16:27:17;21.00;99.90
20035;DHT22;10178;48.034;9.800;2022-09-09T16:29:42;20.80;99.90
20035;DHT22;10178;48.034;9.800;2022-09-09T16:32:30;20.60;99.90
20035;DHT22;10178;48.034;9.800;2022-09-09T16:35:00;20.70;99.90
20035;DHT22;10178;48.034;9.800;2022-09-09T16:37:26;20.90;99.90
20035;DHT22;10178;48.034;9.800;2022-09-09T16:39:55;21.00;99.90
20035;DHT22;10178;48.034;9.800;2022-09-09T16:42:27;21.10;99.90
20035;DHT22;10178;48.034;9.800;2022-09-09T16:51:34;21.30;99.90
20035;DHT22;10178;48.034;9.800;2022-09-09T16:57:42;21.30;99.90
20035;DHT22;10178;48.034;9.800;2022-09-09T17:00:08;21.30;99.90
20035;DHT22;10178;48.034;9.800;2022-09-09T17:02:34;21.20;99.90
20035;DHT22;10178;48.034;9.800;2022-09-09T17:05:00;21.40;99.90
20035;DHT22;10178;48.034;9.800;2022-09-09T17:07:25;21.40;99.90
20035;DHT22;10178;48.034;9.800;2022-09-09T17:09:51;21.60;99.90
20035;DHT22;10178;48.034;9.800;2022-09-09T17:12:19;21.70;99.90
20035;DHT22;10178;48.034;9.800;2022-09-09T17:14:46;21.80;99.90
20035;DHT22;10178;48.034;9.800;2022-09-09T17:17:12;21.80;99.90
20035;DHT22;10178;48.034;9.800;2022-09-09T17:19:38;21.80;99.90
20035;DHT22;10178;48.034;9.800;2022-09-09T17:22:03;21.80;99.90
20035;DHT22;10178;48.034;9.800;2022-09-09T17:24:29;21.80;99.90
20035;DHT22;10178;48.034;9.800;2022-09-09T17:26:55;21.60;99.90
20035;DHT22;10178;48.034;9.800;2022-09-09T17:29:21;21.70;99.90
20035;DHT22;10178;48.034;9.800;2022-09-09T17:31:47;21.70;99.90
20035;DHT22;10178;48.034;9.800;2022-09-09T17:34:12;21.70;99.90
20035;DHT22;10178;48.034;9.800;2022-09-09T17:36:38;21.70;99.90
20035;DHT22;10178;48.034;9.800;2022-09-09T17:39:04;21.60;99.90
20035;DHT22;10178;48.034;9.800;2022-09-09T17:41:39;21.30;99.90
20035;DHT22;10178;48.034;9.800;2022-09-09T17:44:06;20.70;99.90
20035;DHT22;10178;48.034;9.800;2022-09-09T17:46:37;20.80;99.90
20035;DHT22;10178;48.034;9.800;2022-09-09T17:49:11;21.10;99.90
20035;DHT22;10178;48.034;9.800;2022-09-09T17:51:41;21.30;99.90
20035;DHT22;10178;48.034;9.800;2022-09-09T17:54:12;21.50;99.90
20035;DHT22;10178;48.034;9.800;2022-09-09T17:56:39;21.60;99.90
20035;DHT22;10178;48.034;9.800;2022-09-09T17:59:08;21.60;99.90
20035;DHT22;10178;48.034;9.800;2022-09-09T18:01:37;21.60;99.90
20035;DHT22;10178;48.034;9.800;2022-09-09T18:04:05;21.60;99.90
20035;DHT22;10178;48.034;9.800;2022-09-09T18:06:37;21.50;99.90
20035;DHT22;10178;48.034;9.800;2022-09-09T18:09:07;21.40;99.90
20035;DHT22;10178;48.034;9.800;2022-09-09T18:11:36;21.40;99.90
20035;DHT22;10178;48.034;9.800;2022-09-09T18:14:07;21.40;99.90
20035;DHT22;10178;48.034;9.800;2022-09-09T18:16:35;21.20;99.90
20035;DHT22;10178;48.034;9.800;2022-09-09T18:19:02;19.30;99.90
20035;DHT22;10178;48.034;9.800;2022-09-09T18:21:30;19.30;99.90
20035;DHT22;10178;48.034;9.800;2022-09-09T18:24:02;19.10;99.90
20035;DHT22;10178;48.034;9.800;2022-09-09T18:26:30;19.50;99.90
20035;DHT22;10178;48.034;9.800;2022-09-09T18:29:00;19.80;99.90
20035;DHT22;10178;48.034;9.800;2022-09-09T18:31:28;20.10;99.90